メインページ
METAR-TAF:

METAR-TAF

空港 :

山口宇部空港

宇部, 日本

緯度: 33-57N, 経度: 131-15E, 海抜: 5m

現時点の気象観測

当レポートは33分前の08:00(UTC)に作成
西/北西の風 8kt、西/南西からの間で変化する
気温 8°C
湿度 61%
気圧 1025 hPa
視程10km以上
高度2500ftの雲はほとんどない
高度4000ftの千切れ雲あり

METAR: RJDC 130800Z 29008KT 240V350 9999 FEW025 BKN040 08/01 Q1025

時間: 17:33 (08:33 UTC)


TAF: 見つかりません

4,000以上の空港の気象観測と天気予報(METAR報とTAF報)

利用可能な観測所は地図上に黄色い丸と赤い丸で示す。

丸の上にカーソルを重ねると観測所名を参照できる。

次にクリックすると気象観測と天気予報を参照できる。

マップの切り替え:黒色「×」印の緑ボタンをクリックして拡大、「-」印の緑ボタンをクリックして縮小、緑色の三角印をクリックして隣りの地図に切り替え


METAR-TAF: